Time;durP1;ratioP1;P1;durP2;ratioP2;P2;SDS_P1;SDS_P2;PMS_P1;PMS_P2;Temp;Humidity;BMP_temperature;BMP_pressure;BME280_temperature;BME280_humidity;BME280_pressure;Samples;Min_cycle;Max_cycle;Signal;HPM_P1;HPM_P2
2022/10/29 21:00:27;;;;;;;22.23;14.25;;;16.10;99.90;;;;;;5118741;27;20311;-61
2022/10/29 21:02:52;;;;;;;26.20;13.70;;;16.00;99.90;;;;;;5140209;27;20135;-60
2022/10/29 21:05:18;;;;;;;24.42;13.57;;;16.00;99.90;;;;;;5108867;28;20089;-61
2022/10/29 21:07:43;;;;;;;23.35;12.50;;;16.10;99.90;;;;;;5108688;28;20464;-61
2022/10/29 21:10:09;;;;;;;20.27;13.45;;;16.00;99.90;;;;;;5107031;28;20453;-61
2022/10/29 21:12:35;;;;;;;21.63;12.13;;;16.00;99.90;;;;;;5108687;28;20445;-61
2022/10/29 21:15:00;;;;;;;18.80;11.85;;;16.00;99.90;;;;;;5108661;28;20055;-61
2022/10/29 21:17:26;;;;;;;25.70;12.27;;;16.10;99.90;;;;;;5108638;28;20036;-61
2022/10/29 21:19:51;;;;;;;19.77;11.30;;;16.10;99.90;;;;;;5108963;28;20039;-61
2022/10/29 21:22:17;;;;;;;22.98;11.48;;;16.10;99.90;;;;;;5108598;28;20096;-60
2022/10/29 21:24:44;;;;;;;21.73;11.43;;;16.10;99.90;;;;;;5108618;28;20177;-61
2022/10/29 21:27:09;;;;;;;19.25;11.65;;;16.10;99.90;;;;;;5109020;28;20046;-61
2022/10/29 21:29:35;;;;;;;20.05;10.70;;;16.20;99.90;;;;;;5108884;28;20031;-61
2022/10/29 21:32:00;;;;;;;20.92;10.77;;;16.20;99.90;;;;;;5108609;28;20060;-61
2022/10/29 21:34:26;;;;;;;21.77;11.63;;;16.10;99.90;;;;;;5108552;28;20105;-61
2022/10/29 21:36:52;;;;;;;16.38;10.63;;;16.20;99.90;;;;;;5108570;28;20039;-61
2022/10/29 21:39:17;;;;;;;19.48;10.63;;;16.20;99.90;;;;;;5108289;28;20358;-61
2022/10/29 21:41:43;;;;;;;20.45;9.98;;;16.20;99.90;;;;;;5108190;28;20039;-61
2022/10/29 21:44:08;;;;;;;18.73;9.80;;;16.20;99.90;;;;;;5108408;28;20051;-60
2022/10/29 21:46:34;;;;;;;21.50;10.18;;;16.20;99.90;;;;;;5108503;28;20059;-61
2022/10/29 21:49:00;;;;;;;17.80;10.05;;;16.20;99.90;;;;;;5107614;28;20071;-61
2022/10/29 21:51:25;;;;;;;18.77;10.55;;;16.20;99.90;;;;;;5108161;28;20598;-61
2022/10/29 21:53:51;;;;;;;17.17;9.88;;;16.10;99.90;;;;;;5108402;28;20047;-61
2022/10/29 21:56:16;;;;;;;20.27;10.50;;;16.10;99.90;;;;;;5108129;28;20036;-62
2022/10/29 21:58:42;;;;;;;18.60;9.80;;;16.20;99.90;;;;;;5107891;28;20052;-61
2022/10/29 22:01:11;;;;;;;18.50;10.15;;;16.10;99.90;;;;;;5108151;28;20259;-61
2022/10/29 22:03:41;;;;;;;21.13;10.52;;;16.10;99.90;;;;;;5108030;28;20112;-62
2022/10/29 22:06:13;;;;;;;14.68;9.68;;;16.10;99.90;;;;;;5108003;28;20501;-61
2022/10/29 22:08:38;;;;;;;17.85;9.63;;;16.10;99.90;;;;;;5107916;28;20036;-61
2022/10/29 22:11:05;;;;;;;17.20;9.38;;;16.10;99.90;;;;;;5098143;28;20132;-61
2022/10/29 22:13:31;;;;;;;18.38;9.80;;;16.00;99.90;;;;;;5094196;28;20028;-62
2022/10/29 22:15:57;;;;;;;20.88;10.30;;;16.00;99.90;;;;;;5093529;28;20373;-60
2022/10/29 22:18:23;;;;;;;17.30;9.15;;;15.90;99.90;;;;;;5093955;28;20090;-61
2022/10/29 22:20:49;;;;;;;19.73;9.98;;;16.00;99.90;;;;;;5092443;28;20082;-62
2022/10/29 22:23:15;;;;;;;21.77;10.55;;;15.90;99.90;;;;;;5093445;28;20028;-61
2022/10/29 22:25:41;;;;;;;17.33;9.20;;;15.90;99.90;;;;;;5094504;28;20036;-62
2022/10/29 22:28:06;;;;;;;15.77;10.00;;;15.90;99.90;;;;;;5093964;28;20056;-61
2022/10/29 22:30:32;;;;;;;15.40;9.38;;;15.80;99.90;;;;;;5094200;28;20040;-62
2022/10/29 22:32:58;;;;;;;18.83;10.10;;;15.70;99.90;;;;;;5093937;28;20047;-61
2022/10/29 22:35:23;;;;;;;16.55;9.68;;;15.80;99.90;;;;;;5093873;28;20048;-61
2022/10/29 22:37:49;;;;;;;18.02;8.77;;;15.80;99.90;;;;;;5093804;28;20374;-61
2022/10/29 22:40:14;;;;;;;16.23;9.27;;;15.80;99.90;;;;;;5093794;28;20040;-61
2022/10/29 22:42:40;;;;;;;17.08;9.68;;;15.70;99.90;;;;;;5093347;28;20036;-61
2022/10/29 22:45:06;;;;;;;19.73;9.30;;;15.70;99.90;;;;;;5093872;28;20047;-61
2022/10/29 22:47:31;;;;;;;20.80;9.05;;;15.70;99.90;;;;;;5093808;28;20051;-62
2022/10/29 22:49:58;;;;;;;17.23;10.13;;;15.70;99.90;;;;;;5079630;28;20136;-62
2022/10/29 22:52:24;;;;;;;16.33;9.85;;;15.70;99.90;;;;;;5092863;28;20310;-62
2022/10/29 22:54:50;;;;;;;21.85;10.55;;;15.60;99.90;;;;;;5074410;28;20208;-62
2022/10/29 22:57:15;;;;;;;16.55;9.43;;;15.60;99.90;;;;;;5092360;28;20159;-61
2022/10/29 22:59:41;;;;;;;20.27;9.65;;;15.60;99.90;;;;;;5091468;28;20197;-61
2022/10/29 23:02:07;;;;;;;19.08;10.05;;;15.60;99.90;;;;;;5091569;28;20441;-61
2022/10/29 23:04:32;;;;;;;18.27;9.77;;;15.60;99.90;;;;;;5091687;28;20111;-61
2022/10/29 23:06:59;;;;;;;15.05;9.68;;;15.60;99.90;;;;;;5091668;28;20044;-60
2022/10/29 23:09:25;;;;;;;14.25;9.70;;;15.60;99.90;;;;;;5091234;28;20059;-61
2022/10/29 23:11:50;;;;;;;17.38;9.63;;;15.60;99.90;;;;;;5091525;28;20040;-60
2022/10/29 23:14:16;;;;;;;20.58;10.30;;;15.50;99.90;;;;;;5091733;28;20040;-60
2022/10/29 23:16:42;;;;;;;15.90;10.07;;;15.50;99.90;;;;;;5090753;28;20472;-61
2022/10/29 23:19:09;;;;;;;18.92;9.20;;;15.50;99.90;;;;;;5090789;28;20145;-61
2022/10/29 23:21:35;;;;;;;15.98;9.20;;;15.50;99.90;;;;;;5091108;28;20040;-61
2022/10/29 23:24:01;;;;;;;20.35;9.25;;;15.50;99.90;;;;;;5091574;28;20047;-61
2022/10/29 23:26:27;;;;;;;17.40;9.35;;;15.50;99.90;;;;;;5091834;28;20138;-61
2022/10/29 23:28:53;;;;;;;17.52;9.50;;;15.50;99.90;;;;;;5091700;28;20119;-61
2022/10/29 23:31:23;;;;;;;17.80;10.13;;;15.50;99.90;;;;;;5091647;28;20123;-60
2022/10/29 23:33:51;;;;;;;16.48;9.60;;;15.50;99.90;;;;;;5091115;28;20385;-61
2022/10/29 23:36:19;;;;;;;19.58;9.52;;;15.60;99.90;;;;;;5091759;28;20054;-61
2022/10/29 23:38:45;;;;;;;16.38;9.77;;;15.60;99.90;;;;;;5091630;28;20130;-63
2022/10/29 23:41:11;;;;;;;19.17;9.23;;;15.60;99.90;;;;;;5091658;28;20036;-63
2022/10/29 23:43:37;;;;;;;17.52;9.50;;;15.60;99.90;;;;;;5091333;28;20322;-62
2022/10/29 23:46:03;;;;;;;19.45;9.20;;;15.60;99.90;;;;;;5091447;28;20514;-62
2022/10/29 23:48:28;;;;;;;15.68;9.60;;;15.60;99.90;;;;;;5091213;28;20055;-62
2022/10/29 23:50:55;;;;;;;18.95;9.30;;;15.60;99.90;;;;;;5091357;28;20047;-64
2022/10/29 23:53:22;;;;;;;17.08;9.65;;;15.60;99.90;;;;;;5091211;28;20070;-62
2022/10/29 23:55:48;;;;;;;20.08;9.68;;;15.60;99.90;;;;;;5091624;28;20051;-62
2022/10/29 23:58:14;;;;;;;20.98;9.68;;;15.60;99.90;;;;;;5089673;28;20043;-62
